Time;durP1;ratioP1;P1;durP2;ratioP2;P2;SDS_P1;SDS_P2;PMS_P1;PMS_P2;Temp;Humidity;BMP_temperature;BMP_pressure;BME280_temperature;BME280_humidity;BME280_pressure;Samples;Min_cycle;Max_cycle;Signal;HPM_P1;HPM_P2
2021/04/03 00:00:15;;;;;;;12.73;6.83;;;6.90;69.20;;;;;;5065967;28;20290;-72
2021/04/03 00:02:41;;;;;;;16.33;6.53;;;6.90;68.90;;;;;;5071764;28;20223;-72
2021/04/03 00:05:12;;;;;;;12.10;5.80;;;6.80;69.20;;;;;;5071406;28;20426;-72
2021/04/03 00:07:39;;;;;;;13.87;6.70;;;6.70;69.80;;;;;;5072518;28;20464;-71
2021/04/03 00:10:29;;;;;;;19.33;7.00;;;6.70;69.20;;;;;;5073195;28;20430;-72
2021/04/03 00:12:56;;;;;;;13.80;7.17;;;6.80;68.90;;;;;;5073199;28;20488;-71
2021/04/03 00:15:22;;;;;;;16.53;7.00;;;6.80;68.20;;;;;;5073546;28;20449;-72
2021/04/03 00:17:48;;;;;;;12.70;6.83;;;6.80;68.00;;;;;;5061464;28;20445;-72
2021/04/03 00:20:16;;;;;;;18.83;7.03;;;6.70;67.70;;;;;;5073527;28;20835;-72
2021/04/03 00:22:43;;;;;;;12.47;6.90;;;6.70;68.00;;;;;;5071091;28;20694;-72
2021/04/03 00:25:09;;;;;;;13.83;6.70;;;6.70;67.90;;;;;;5072990;28;20487;-72
2021/04/03 00:27:35;;;;;;;14.50;6.57;;;6.60;68.60;;;;;;5077097;28;20430;-71
2021/04/03 00:30:14;;;;;;;15.60;6.87;;;6.60;69.10;;;;;;5081238;28;20433;-72
2021/04/03 00:32:45;;;;;;;14.73;6.47;;;6.60;68.80;;;;;;5081769;28;20179;-71
2021/04/03 00:35:12;;;;;;;17.07;7.63;;;6.70;68.60;;;;;;5072476;28;20551;-70
2021/04/03 00:37:38;;;;;;;15.43;6.63;;;6.70;68.30;;;;;;5081727;28;20422;-72
2021/04/03 00:40:11;;;;;;;15.20;7.50;;;6.60;67.90;;;;;;5078793;28;20437;-72
2021/04/03 00:42:37;;;;;;;13.90;7.00;;;6.60;68.20;;;;;;5072615;28;20500;-70
2021/04/03 00:45:04;;;;;;;17.40;6.57;;;6.60;67.60;;;;;;5073157;28;20827;-71
2021/04/03 00:47:30;;;;;;;14.47;7.10;;;6.60;67.90;;;;;;5073330;28;20501;-72
2021/04/03 00:49:55;;;;;;;11.53;6.57;;;6.50;67.20;;;;;;5088602;28;20438;-70
2021/04/03 00:52:21;;;;;;;13.27;6.50;;;6.40;66.90;;;;;;5072483;28;20438;-72
2021/04/03 00:54:47;;;;;;;12.20;6.60;;;6.30;67.00;;;;;;5072454;28;20304;-70
2021/04/03 00:57:13;;;;;;;19.73;7.20;;;6.30;67.20;;;;;;5072614;28;20204;-71
2021/04/03 00:59:39;;;;;;;15.13;6.80;;;6.20;67.00;;;;;;5068245;28;20179;-72
2021/04/03 01:02:06;;;;;;;12.47;7.00;;;6.10;67.50;;;;;;5062427;28;20226;-70
2021/04/03 01:04:33;;;;;;;12.50;5.80;;;6.10;67.50;;;;;;5072354;28;20410;-71
2021/04/03 01:06:59;;;;;;;20.67;6.50;;;6.10;67.50;;;;;;5072296;28;20426;-72
2021/04/03 01:09:25;;;;;;;14.07;6.00;;;6.10;67.20;;;;;;5071944;28;20424;-71
2021/04/03 01:12:24;;;;;;;16.67;7.10;;;6.20;66.90;;;;;;5071015;28;20839;-72
2021/04/03 01:15:08;;;;;;;17.03;6.90;;;6.20;66.40;;;;;;5060506;28;20406;-72
2021/04/03 01:17:58;;;;;;;17.27;6.73;;;6.10;66.30;;;;;;5072032;28;20470;-71
2021/04/03 01:20:56;;;;;;;14.37;6.40;;;6.10;66.40;;;;;;5068669;28;20429;-72
2021/04/03 01:23:40;;;;;;;11.47;6.57;;;6.10;66.30;;;;;;5073094;28;20972;-72
2021/04/03 01:26:27;;;;;;;14.83;6.90;;;6.20;66.30;;;;;;5076213;28;20473;-72
2021/04/03 01:29:22;;;;;;;15.60;6.60;;;6.10;66.10;;;;;;5068188;28;20826;-71
2021/04/03 01:31:48;;;;;;;14.70;5.80;;;6.20;66.30;;;;;;5067371;28;20758;-71
2021/04/03 01:34:23;;;;;;;11.40;5.80;;;6.10;66.10;;;;;;5071597;28;20422;-71
2021/04/03 01:36:52;;;;;;;11.47;5.33;;;6.20;66.10;;;;;;5072292;28;20457;-72
2021/04/03 01:39:22;;;;;;;14.97;5.73;;;6.30;65.80;;;;;;5072230;28;20449;-72
2021/04/03 01:41:49;;;;;;;11.00;5.73;;;6.40;65.40;;;;;;5076508;28;20497;-72
2021/04/03 01:44:31;;;;;;;12.10;6.27;;;6.40;65.30;;;;;;5076956;28;20675;-73
2021/04/03 01:46:58;;;;;;;15.00;5.30;;;6.40;64.70;;;;;;5073400;28;20426;-71
2021/04/03 01:49:25;;;;;;;12.60;6.37;;;6.30;65.10;;;;;;5070840;28;20471;-73
2021/04/03 01:51:52;;;;;;;12.20;6.30;;;6.30;65.30;;;;;;5071738;28;20453;-72
2021/04/03 01:54:20;;;;;;;13.13;5.53;;;6.20;65.10;;;;;;5071581;28;20436;-71
2021/04/03 01:56:49;;;;;;;16.70;5.73;;;6.20;65.40;;;;;;5071563;28;21123;-73
2021/04/03 01:59:16;;;;;;;17.37;5.90;;;6.20;65.70;;;;;;5072121;28;20497;-71
2021/04/03 02:01:43;;;;;;;19.10;8.53;;;6.30;65.60;;;;;;5058045;28;20426;-73
2021/04/03 02:04:11;;;;;;;10.03;5.47;;;6.10;65.10;;;;;;5070146;28;20473;-71
2021/04/03 02:06:41;;;;;;;13.10;6.23;;;6.10;65.60;;;;;;5071097;28;20464;-72
2021/04/03 02:09:09;;;;;;;20.23;6.70;;;6.00;65.70;;;;;;5069125;28;20418;-73
2021/04/03 02:11:42;;;;;;;10.60;5.83;;;6.00;65.70;;;;;;5072232;28;20415;-73
2021/04/03 02:14:08;;;;;;;12.37;5.90;;;5.90;66.40;;;;;;5070969;28;20414;-70
2021/04/03 02:16:36;;;;;;;13.40;6.37;;;6.00;66.70;;;;;;5070336;28;20480;-73
2021/04/03 02:19:07;;;;;;;10.87;5.80;;;6.00;66.90;;;;;;5070865;28;20426;-70
2021/04/03 02:21:36;;;;;;;13.23;6.10;;;6.10;67.50;;;;;;5070820;28;20430;-73
2021/04/03 02:24:03;;;;;;;12.63;6.87;;;6.10;67.60;;;;;;5070474;28;20473;-70
2021/04/03 02:26:36;;;;;;;11.43;6.13;;;6.10;67.90;;;;;;5070412;28;21000;-71
2021/04/03 02:29:06;;;;;;;12.93;5.93;;;6.00;68.30;;;;;;5065669;28;20423;-72
2021/04/03 02:31:33;;;;;;;15.37;7.33;;;6.00;68.50;;;;;;5063979;28;20793;-74
2021/04/03 02:33:58;;;;;;;13.63;5.60;;;6.00;68.80;;;;;;5070635;28;20495;-71
2021/04/03 02:36:24;;;;;;;11.80;5.83;;;6.10;68.30;;;;;;5070010;28;20442;-73
2021/04/03 02:38:51;;;;;;;13.53;6.70;;;6.00;68.80;;;;;;5072922;28;20426;-72
2021/04/03 02:41:22;;;;;;;13.33;6.00;;;6.10;68.30;;;;;;5070868;28;20191;-71
2021/04/03 02:44:13;;;;;;;21.53;7.27;;;6.00;68.20;;;;;;5057157;28;20468;-70
2021/04/03 02:46:54;;;;;;;11.33;5.27;;;6.10;67.90;;;;;;5069124;28;20425;-73
2021/04/03 02:49:37;;;;;;;7.20;5.40;;;6.10;67.60;;;;;;5070565;28;20412;-71
2021/04/03 02:52:05;;;;;;;10.07;5.70;;;6.10;67.70;;;;;;5059526;28;20438;-70
2021/04/03 02:54:33;;;;;;;11.50;5.77;;;6.10;67.60;;;;;;5070202;28;20953;-72
2021/04/03 02:57:00;;;;;;;12.63;5.70;;;6.00;66.60;;;;;;5069408;28;20438;-72
2021/04/03 02:59:36;;;;;;;12.10;5.03;;;5.90;67.50;;;;;;5068484;28;20429;-71
2021/04/03 03:02:03;;;;;;;14.13;5.20;;;5.90;67.30;;;;;;5074643;28;20500;-71
2021/04/03 03:04:29;;;;;;;12.67;6.47;;;5.90;66.70;;;;;;5069643;28;20461;-70
2021/04/03 03:06:57;;;;;;;7.37;4.50;;;5.90;66.60;;;;;;5069564;28;20441;-72
2021/04/03 03:09:23;;;;;;;9.40;4.47;;;5.80;66.70;;;;;;5069927;28;20476;-70
2021/04/03 03:11:54;;;;;;;10.03;4.70;;;5.90;66.90;;;;;;5073538;28;20422;-71
2021/04/03 03:14:22;;;;;;;12.90;4.77;;;5.80;66.60;;;;;;5080453;28;20579;-71
2021/04/03 03:16:50;;;;;;;11.07;4.90;;;5.80;66.90;;;;;;5075982;28;20821;-71
2021/04/03 03:19:17;;;;;;;14.20;5.67;;;5.80;66.60;;;;;;5073110;28;20427;-71
2021/04/03 03:21:43;;;;;;;8.90;4.30;;;5.70;66.60;;;;;;5068610;28;20429;-72
2021/04/03 03:24:10;;;;;;;10.47;5.00;;;5.70;67.00;;;;;;5069561;28;20465;-70
2021/04/03 03:26:38;;;;;;;10.70;4.53;;;5.70;67.00;;;;;;5068313;28;20438;-73
2021/04/03 03:29:07;;;;;;;17.63;5.30;;;5.60;67.20;;;;;;5069661;28;20425;-71
2021/04/03 03:31:33;;;;;;;7.70;4.90;;;5.60;67.70;;;;;;5069827;28;20422;-73
2021/04/03 03:33:59;;;;;;;7.53;4.50;;;5.60;68.00;;;;;;5069705;28;20838;-73
2021/04/03 03:36:27;;;;;;;12.27;5.47;;;5.60;67.70;;;;;;5069065;28;20442;-73
2021/04/03 03:38:53;;;;;;;14.27;5.67;;;5.70;68.00;;;;;;5069478;28;20937;-72
2021/04/03 03:41:19;;;;;;;9.70;5.20;;;5.60;67.90;;;;;;5068575;28;20460;-73
2021/04/03 03:43:46;;;;;;;10.33;4.43;;;5.60;68.20;;;;;;5068124;28;20462;-72
2021/04/03 03:46:12;;;;;;;11.80;4.70;;;5.60;67.90;;;;;;5068821;28;20438;-73
2021/04/03 03:48:37;;;;;;;9.83;4.83;;;5.70;67.70;;;;;;5069333;28;20417;-72
2021/04/03 03:51:03;;;;;;;11.13;4.57;;;5.70;67.30;;;;;;5069672;28;20179;-71
2021/04/03 03:53:29;;;;;;;8.40;4.33;;;5.70;67.20;;;;;;5069546;28;20204;-72
2021/04/03 03:55:55;;;;;;;10.03;5.00;;;5.60;67.00;;;;;;5067993;28;20228;-71
2021/04/03 03:58:21;;;;;;;14.80;4.90;;;5.50;67.20;;;;;;5055276;28;20193;-72
2021/04/03 04:00:47;;;;;;;12.63;4.80;;;5.50;67.70;;;;;;5060966;28;20860;-71
2021/04/03 04:03:12;;;;;;;11.37;4.20;;;5.40;68.20;;;;;;5067418;28;20466;-72
2021/04/03 04:05:38;;;;;;;8.33;4.10;;;5.40;68.50;;;;;;5065950;28;20200;-72
2021/04/03 04:08:04;;;;;;;9.67;4.57;;;5.30;68.90;;;;;;5073927;28;20195;-71
2021/04/03 04:10:30;;;;;;;7.80;4.90;;;5.30;69.10;;;;;;5073368;28;20983;-71
2021/04/03 04:12:56;;;;;;;7.70;4.40;;;5.30;69.20;;;;;;5076888;28;20433;-72
2021/04/03 04:15:21;;;;;;;10.53;4.73;;;5.30;69.50;;;;;;5077961;28;20218;-73
2021/04/03 04:17:47;;;;;;;13.97;5.70;;;5.30;69.40;;;;;;5077898;28;20245;-72
2021/04/03 04:20:13;;;;;;;9.03;5.10;;;5.30;69.70;;;;;;5081269;28;20677;-71
2021/04/03 04:22:39;;;;;;;12.27;5.20;;;5.30;69.80;;;;;;5074174;28;20203;-72
2021/04/03 04:25:06;;;;;;;11.37;4.67;;;5.30;69.90;;;;;;5078272;28;20422;-71
2021/04/03 04:27:31;;;;;;;22.23;6.03;;;5.30;70.20;;;;;;5070858;28;20418;-70
2021/04/03 04:30:08;;;;;;;11.50;4.80;;;5.20;70.50;;;;;;5085658;28;20445;-72
2021/04/03 04:32:40;;;;;;;13.17;5.70;;;5.30;70.80;;;;;;5071484;28;20260;-73
2021/04/03 04:35:10;;;;;;;14.00;5.60;;;5.30;70.70;;;;;;5072192;28;20417;-73
2021/04/03 04:37:37;;;;;;;9.57;5.47;;;5.20;71.00;;;;;;5073865;28;20422;-72
2021/04/03 04:40:07;;;;;;;10.40;4.50;;;5.20;71.40;;;;;;5072744;28;20451;-72
2021/04/03 04:42:33;;;;;;;9.00;4.30;;;5.20;71.70;;;;;;5071986;28;20413;-70
2021/04/03 04:44:59;;;;;;;14.10;4.97;;;5.30;71.60;;;;;;5071814;28;20414;-71
2021/04/03 04:47:25;;;;;;;12.10;5.83;;;5.40;71.10;;;;;;5071780;28;20212;-73
2021/04/03 04:49:51;;;;;;;14.93;5.67;;;5.40;70.80;;;;;;5072372;28;20452;-72
2021/04/03 04:52:17;;;;;;;9.23;4.67;;;5.50;70.80;;;;;;5072207;28;20991;-72
2021/04/03 04:54:43;;;;;;;12.40;4.93;;;5.60;70.50;;;;;;5072168;28;20518;-72
2021/04/03 04:57:09;;;;;;;10.40;5.30;;;5.60;70.20;;;;;;5068054;28;20805;-73
2021/04/03 04:59:35;;;;;;;18.50;6.43;;;5.60;69.80;;;;;;5072360;28;20430;-72
2021/04/03 05:02:01;;;;;;;11.83;5.50;;;5.60;69.40;;;;;;5072262;28;20187;-69
2021/04/03 05:04:26;;;;;;;13.87;5.00;;;5.60;69.70;;;;;;5071758;28;20260;-71
2021/04/03 05:06:52;;;;;;;10.73;4.73;;;5.50;69.90;;;;;;5071555;28;20442;-72
2021/04/03 05:09:18;;;;;;;10.93;5.20;;;5.50;69.90;;;;;;5069158;28;20183;-72
2021/04/03 05:11:44;;;;;;;9.03;5.17;;;5.60;70.10;;;;;;5071962;28;20204;-70
2021/04/03 05:14:09;;;;;;;11.17;5.87;;;5.60;69.90;;;;;;5071549;28;20253;-70
2021/04/03 05:16:35;;;;;;;11.50;6.07;;;5.50;69.80;;;;;;5071220;28;20206;-71
2021/04/03 05:19:01;;;;;;;8.50;4.93;;;5.60;69.90;;;;;;5069723;28;20219;-72
2021/04/03 05:21:27;;;;;;;10.10;4.90;;;5.60;69.90;;;;;;5071430;28;20180;-72
2021/04/03 05:23:53;;;;;;;10.00;5.27;;;5.60;69.90;;;;;;5071625;28;20472;-72
2021/04/03 05:26:19;;;;;;;14.63;5.37;;;5.60;69.90;;;;;;5070884;28;20196;-72
2021/04/03 05:28:44;;;;;;;8.70;4.47;;;5.60;69.70;;;;;;5071136;28;20176;-70
2021/04/03 05:31:11;;;;;;;7.97;4.50;;;5.60;69.70;;;;;;5071613;28;20179;-70
2021/04/03 05:33:37;;;;;;;14.17;5.17;;;5.50;69.70;;;;;;5071518;28;20179;-71
2021/04/03 05:36:03;;;;;;;10.60;5.00;;;5.40;70.10;;;;;;5071434;28;20444;-72
2021/04/03 05:38:29;;;;;;;12.17;4.70;;;5.60;70.10;;;;;;5087652;28;20229;-72
2021/04/03 05:40:54;;;;;;;10.60;4.83;;;5.60;69.70;;;;;;5072482;28;20417;-71
2021/04/03 05:43:22;;;;;;;14.87;4.87;;;5.70;69.70;;;;;;5071756;28;20278;-72
2021/04/03 05:45:53;;;;;;;8.37;4.83;;;5.70;69.50;;;;;;5066044;28;20291;-71
2021/04/03 05:48:22;;;;;;;11.20;4.93;;;5.70;69.40;;;;;;5067800;28;20422;-71
2021/04/03 05:50:53;;;;;;;9.43;4.87;;;5.70;69.70;;;;;;5070948;28;20529;-71
2021/04/03 05:53:20;;;;;;;9.33;4.40;;;5.70;69.40;;;;;;5070685;28;20533;-72
2021/04/03 05:55:50;;;;;;;8.37;4.00;;;5.60;69.70;;;;;;5072453;28;20449;-72
2021/04/03 05:58:15;;;;;;;10.30;4.63;;;5.70;69.70;;;;;;5071482;28;21038;-76
2021/04/03 06:00:41;;;;;;;10.90;4.70;;;5.60;70.10;;;;;;5058489;28;20506;-75
2021/04/03 06:03:07;;;;;;;11.07;4.87;;;5.70;70.20;;;;;;5057658;28;20938;-77
2021/04/03 06:05:33;;;;;;;12.07;4.27;;;5.70;69.80;;;;;;5064713;28;20211;-76
2021/04/03 06:07:59;;;;;;;10.93;4.90;;;5.70;70.20;;;;;;5064953;28;20191;-77
2021/04/03 06:10:24;;;;;;;10.57;4.40;;;5.80;70.20;;;;;;5067888;28;20429;-76
2021/04/03 06:12:50;;;;;;;14.00;6.50;;;5.80;70.20;;;;;;5068649;28;20172;-78
2021/04/03 06:15:34;;;;;;;12.30;6.00;;;5.90;70.20;;;;;;5069298;28;20218;-76
2021/04/03 06:18:07;;;;;;;9.53;5.63;;;6.00;70.20;;;;;;5065319;28;21102;-75
2021/04/03 06:20:39;;;;;;;11.40;5.00;;;6.30;68.50;;;;;;5064049;28;20633;-75
2021/04/03 06:23:07;;;;;;;8.67;4.37;;;6.80;66.40;;;;;;5061476;28;20559;-74
2021/04/03 06:25:52;;;;;;;10.87;4.87;;;6.70;65.80;;;;;;5063194;28;20458;-78
2021/04/03 06:28:26;;;;;;;6.73;4.07;;;6.20;67.60;;;;;;5068761;28;20518;-78
2021/04/03 06:31:00;;;;;;;12.00;4.80;;;6.00;69.20;;;;;;5072294;28;20425;-79
2021/04/03 06:33:26;;;;;;;11.57;4.90;;;6.00;69.90;;;;;;5071265;28;20417;-77
2021/04/03 06:36:12;;;;;;;10.90;3.90;;;6.00;69.70;;;;;;5072006;28;20446;-77
2021/04/03 06:38:38;;;;;;;10.50;4.97;;;5.90;69.90;;;;;;5072679;28;20414;-77
2021/04/03 06:41:25;;;;;;;12.03;4.73;;;5.70;70.50;;;;;;5070854;28;20418;-77
2021/04/03 06:44:09;;;;;;;9.73;4.93;;;5.70;70.80;;;;;;5077938;28;20450;-76
2021/04/03 06:46:36;;;;;;;8.67;4.50;;;5.60;71.30;;;;;;5072252;28;20811;-77
2021/04/03 06:49:03;;;;;;;11.90;5.57;;;5.70;71.70;;;;;;5069940;28;20447;-76
2021/04/03 06:51:30;;;;;;;12.40;4.30;;;5.70;71.10;;;;;;5069730;28;20418;-74
2021/04/03 06:53:58;;;;;;;10.07;4.23;;;5.80;71.40;;;;;;5069656;28;20424;-74
2021/04/03 06:56:25;;;;;;;10.30;4.40;;;6.00;70.80;;;;;;5068334;28;20486;-76
2021/04/03 06:59:02;;;;;;;9.90;4.77;;;6.00;69.80;;;;;;5069132;28;20441;-78
2021/04/03 07:01:50;;;;;;;13.17;4.00;;;5.90;71.00;;;;;;5064069;28;20434;-71
2021/04/03 07:04:40;;;;;;;8.43;3.90;;;6.10;70.10;;;;;;5062543;28;21105;-70
2021/04/03 07:07:07;;;;;;;11.73;4.87;;;6.30;69.40;;;;;;5068455;28;20521;-69
2021/04/03 07:09:34;;;;;;;7.43;4.10;;;6.40;68.60;;;;;;5068967;28;20428;-72
2021/04/03 07:12:01;;;;;;;10.77;4.17;;;6.30;68.90;;;;;;5068493;28;20437;-72
2021/04/03 07:14:30;;;;;;;7.43;3.90;;;6.40;68.60;;;;;;5069544;28;20445;-72
2021/04/03 07:16:58;;;;;;;12.13;4.50;;;6.40;69.20;;;;;;5069523;28;21068;-72
2021/04/03 07:19:27;;;;;;;8.73;4.07;;;6.50;68.00;;;;;;5069517;28;20452;-73
2021/04/03 07:21:54;;;;;;;10.73;4.27;;;6.50;67.50;;;;;;5065099;28;20954;-71
2021/04/03 07:24:20;;;;;;;9.10;4.50;;;6.70;67.00;;;;;;5069700;28;20829;-72
2021/04/03 07:26:49;;;;;;;5.87;4.40;;;6.90;66.90;;;;;;5069442;28;20442;-72
2021/04/03 07:29:50;;;;;;;9.77;4.03;;;7.00;66.10;;;;;;5069717;28;20421;-71
2021/04/03 07:32:38;;;;;;;15.60;6.53;;;7.00;64.70;;;;;;5071065;28;20413;-71
2021/04/03 07:35:13;;;;;;;7.67;3.97;;;7.00;64.70;;;;;;5072171;28;20456;-71
2021/04/03 07:37:39;;;;;;;9.63;3.77;;;6.80;65.10;;;;;;5073617;28;20413;-70
2021/04/03 07:40:05;;;;;;;6.83;4.13;;;6.80;65.40;;;;;;5073667;28;20482;-72
2021/04/03 07:42:39;;;;;;;6.33;3.70;;;6.80;65.40;;;;;;5073162;28;20428;-71
2021/04/03 07:45:25;;;;;;;15.23;3.33;;;6.80;65.80;;;;;;5073143;28;20476;-72
2021/04/03 07:47:51;;;;;;;8.93;4.87;;;6.90;65.70;;;;;;5073265;28;20896;-72
2021/04/03 07:50:40;;;;;;;14.00;4.77;;;6.90;64.80;;;;;;5069110;28;20507;-71
2021/04/03 07:53:07;;;;;;;12.17;4.70;;;6.80;65.70;;;;;;5046840;28;20564;-70
2021/04/03 07:55:35;;;;;;;9.20;4.00;;;6.90;65.80;;;;;;5071673;28;20442;-71
2021/04/03 07:58:26;;;;;;;11.30;5.03;;;7.10;65.30;;;;;;5071227;28;20418;-71
2021/04/03 08:00:52;;;;;;;8.67;3.97;;;7.20;64.80;;;;;;5074706;28;20854;-71
2021/04/03 08:03:23;;;;;;;9.80;3.87;;;7.10;64.70;;;;;;5077516;28;20462;-71
2021/04/03 08:05:50;;;;;;;6.33;3.57;;;6.70;65.60;;;;;;5079381;28;20449;-72
2021/04/03 08:08:19;;;;;;;9.90;3.90;;;6.50;65.60;;;;;;5073481;28;20426;-72
2021/04/03 08:10:45;;;;;;;12.97;3.83;;;6.50;66.10;;;;;;5076171;28;20430;-70
2021/04/03 08:13:11;;;;;;;11.10;3.50;;;6.70;66.00;;;;;;5081461;28;20487;-72
2021/04/03 08:15:42;;;;;;;10.40;3.87;;;6.60;66.30;;;;;;5081478;28;20476;-72
2021/04/03 08:18:10;;;;;;;12.27;3.43;;;6.70;65.80;;;;;;5073875;28;20419;-71
2021/04/03 08:20:36;;;;;;;5.87;3.27;;;6.70;65.60;;;;;;5073136;28;20844;-72
2021/04/03 08:23:06;;;;;;;8.10;3.17;;;6.60;65.10;;;;;;5072700;28;20501;-71
2021/04/03 08:25:33;;;;;;;7.00;3.33;;;6.60;65.40;;;;;;5072318;28;20438;-70
2021/04/03 08:28:16;;;;;;;7.90;3.50;;;6.50;65.80;;;;;;5072116;28;21023;-72
2021/04/03 08:30:42;;;;;;;6.80;3.10;;;6.50;66.10;;;;;;5072457;28;20426;-70
2021/04/03 08:33:11;;;;;;;7.00;2.93;;;6.50;66.30;;;;;;5072839;28;20432;-71
2021/04/03 08:35:39;;;;;;;8.83;3.60;;;6.60;65.60;;;;;;5070757;28;20601;-72
2021/04/03 08:38:21;;;;;;;7.00;3.20;;;6.70;65.10;;;;;;5072705;28;20426;-70
2021/04/03 08:40:49;;;;;;;6.17;2.80;;;6.80;64.40;;;;;;5063347;28;20426;-72
2021/04/03 08:43:20;;;;;;;8.73;3.23;;;6.90;64.40;;;;;;5074116;28;20466;-71
2021/04/03 08:45:45;;;;;;;8.80;3.40;;;7.00;63.80;;;;;;5072469;28;20442;-71
2021/04/03 08:48:12;;;;;;;12.10;3.57;;;7.10;62.80;;;;;;5073291;28;20421;-72
2021/04/03 08:50:40;;;;;;;9.80;3.50;;;6.90;62.60;;;;;;5068364;28;20450;-72
2021/04/03 08:53:08;;;;;;;8.33;3.17;;;6.80;63.90;;;;;;5070334;28;20547;-72
2021/04/03 08:55:34;;;;;;;8.37;3.37;;;6.80;64.20;;;;;;5072741;28;20533;-71
2021/04/03 08:58:01;;;;;;;6.40;3.13;;;6.90;63.50;;;;;;5074052;28;20430;-70
2021/04/03 09:00:27;;;;;;;10.00;3.30;;;6.90;63.40;;;;;;5063575;28;20867;-71
2021/04/03 09:02:54;;;;;;;5.47;2.70;;;6.90;62.90;;;;;;5069360;28;20880;-72
2021/04/03 09:05:20;;;;;;;9.93;2.90;;;7.10;62.50;;;;;;5073319;28;20475;-71
2021/04/03 09:07:46;;;;;;;7.13;4.13;;;7.30;60.60;;;;;;5074582;28;20426;-71
2021/04/03 09:10:14;;;;;;;6.93;2.97;;;7.40;60.40;;;;;;5074463;28;20465;-72
2021/04/03 09:12:41;;;;;;;7.97;3.00;;;7.60;60.30;;;;;;5078634;28;20426;-73
2021/04/03 09:15:09;;;;;;;9.20;4.43;;;7.70;59.50;;;;;;5068903;28;20441;-72
2021/04/03 09:17:45;;;;;;;8.53;3.30;;;7.70;59.20;;;;;;5069684;28;20429;-72
2021/04/03 09:20:14;;;;;;;8.27;3.83;;;7.80;58.80;;;;;;5072139;28;20417;-71
2021/04/03 09:22:42;;;;;;;14.20;3.63;;;7.70;58.70;;;;;;5072394;28;20426;-72
2021/04/03 09:25:09;;;;;;;4.27;2.50;;;7.60;58.70;;;;;;5072457;28;20518;-70
2021/04/03 09:27:36;;;;;;;8.50;2.87;;;7.60;58.70;;;;;;5071914;28;20422;-72
2021/04/03 09:30:06;;;;;;;8.80;3.80;;;7.20;59.60;;;;;;5067460;28;20430;-71
2021/04/03 09:32:40;;;;;;;6.13;3.70;;;7.10;60.70;;;;;;5071023;28;20996;-72
2021/04/03 09:35:07;;;;;;;7.97;3.20;;;7.20;61.30;;;;;;5069331;28;20430;-72
2021/04/03 09:37:33;;;;;;;4.97;3.30;;;7.20;60.70;;;;;;5087734;28;20426;-71
2021/04/03 09:39:59;;;;;;;10.40;3.73;;;7.30;59.90;;;;;;5071639;28;20801;-71
2021/04/03 09:42:27;;;;;;;8.27;3.40;;;7.60;58.90;;;;;;5071984;28;20425;-73
2021/04/03 09:44:54;;;;;;;10.30;3.20;;;7.90;57.60;;;;;;5071358;28;20445;-71
2021/04/03 09:47:21;;;;;;;8.33;3.77;;;7.90;56.80;;;;;;5070047;28;20422;-72
2021/04/03 09:49:48;;;;;;;13.13;3.50;;;7.80;57.60;;;;;;5072016;28;20410;-72
2021/04/03 09:52:15;;;;;;;5.47;3.17;;;7.60;58.10;;;;;;5070357;28;20544;-72
2021/04/03 09:54:42;;;;;;;6.10;3.10;;;7.50;58.00;;;;;;5071386;28;20433;-72
2021/04/03 09:57:09;;;;;;;8.30;3.27;;;7.70;57.30;;;;;;5070436;28;20462;-71
2021/04/03 09:59:35;;;;;;;6.57;3.23;;;7.80;57.20;;;;;;5069098;28;20936;-72
2021/04/03 10:02:02;;;;;;;5.23;2.87;;;7.70;56.80;;;;;;5060468;28;21103;-73
2021/04/03 10:04:28;;;;;;;6.53;2.87;;;7.60;57.20;;;;;;5071096;28;20541;-70
2021/04/03 10:06:54;;;;;;;5.80;2.87;;;7.60;57.70;;;;;;5071161;28;21050;-72
2021/04/03 10:09:21;;;;;;;8.00;3.33;;;7.70;57.70;;;;;;5071416;28;20218;-71
2021/04/03 10:11:48;;;;;;;8.70;3.50;;;7.90;57.70;;;;;;5071659;28;20414;-73
2021/04/03 10:14:14;;;;;;;6.37;3.17;;;8.20;56.60;;;;;;5071156;28;20565;-72
2021/04/03 10:16:40;;;;;;;5.43;3.07;;;8.20;55.80;;;;;;5073889;28;20483;-71
2021/04/03 10:19:06;;;;;;;8.27;3.53;;;8.50;55.00;;;;;;5071610;28;20508;-70
2021/04/03 10:21:32;;;;;;;5.70;2.90;;;8.80;54.60;;;;;;5071245;28;20857;-71
2021/04/03 10:23:58;;;;;;;7.97;3.20;;;8.90;53.00;;;;;;5071137;28;20542;-72
2021/04/03 10:26:24;;;;;;;6.20;3.00;;;8.90;52.90;;;;;;5070485;28;20438;-72
2021/04/03 10:28:50;;;;;;;7.20;3.60;;;8.90;52.40;;;;;;5070787;28;20419;-71
2021/04/03 10:31:17;;;;;;;6.47;3.60;;;9.00;52.00;;;;;;5071195;28;20211;-72
2021/04/03 10:33:43;;;;;;;6.43;4.07;;;9.00;52.40;;;;;;5071089;28;20845;-72
2021/04/03 10:36:10;;;;;;;6.33;3.20;;;9.10;52.60;;;;;;5071445;28;20552;-72
2021/04/03 10:38:36;;;;;;;8.50;3.47;;;9.00;52.90;;;;;;5070600;28;20476;-71
2021/04/03 10:41:02;;;;;;;10.03;3.30;;;9.30;52.80;;;;;;5072071;28;20422;-72
2021/04/03 10:43:28;;;;;;;6.80;3.70;;;9.40;51.80;;;;;;5071696;28;20507;-71
2021/04/03 10:45:53;;;;;;;5.70;2.90;;;9.40;52.10;;;;;;5070637;28;20465;-71
2021/04/03 10:48:19;;;;;;;10.00;3.77;;;9.60;51.80;;;;;;5071668;28;20733;-71
2021/04/03 10:50:45;;;;;;;6.60;3.50;;;9.80;50.70;;;;;;5071701;28;20261;-73
2021/04/03 10:53:11;;;;;;;5.37;3.00;;;10.00;49.90;;;;;;5071296;28;20455;-71
2021/04/03 10:55:38;;;;;;;3.60;2.63;;;10.30;49.30;;;;;;5071474;28;20207;-71
2021/04/03 10:58:05;;;;;;;7.03;3.20;;;11.00;47.40;;;;;;5071357;28;20612;-71
2021/04/03 11:00:31;;;;;;;8.40;3.40;;;11.50;45.40;;;;;;5060899;28;20435;-71
2021/04/03 11:02:57;;;;;;;10.20;3.37;;;11.70;44.60;;;;;;5053311;28;20840;-71
2021/04/03 11:05:23;;;;;;;7.30;2.90;;;11.30;43.90;;;;;;5070789;28;20479;-71
2021/04/03 11:07:50;;;;;;;5.90;2.90;;;11.00;45.90;;;;;;5075530;28;20488;-72
2021/04/03 11:10:16;;;;;;;10.67;3.40;;;10.90;46.60;;;;;;5075739;28;20429;-72
2021/04/03 11:12:42;;;;;;;7.57;3.83;;;11.30;45.80;;;;;;5078247;28;20418;-71
2021/04/03 11:15:09;;;;;;;5.53;3.00;;;11.80;44.10;;;;;;5078317;28;20425;-72
2021/04/03 11:17:35;;;;;;;6.23;2.80;;;11.30;45.10;;;;;;5077731;28;20483;-71
2021/04/03 11:20:04;;;;;;;5.50;2.83;;;10.90;46.10;;;;;;5077831;28;20434;-72
2021/04/03 11:22:30;;;;;;;10.20;4.13;;;10.50;46.60;;;;;;5072750;28;20902;-71
2021/04/03 11:24:56;;;;;;;6.70;2.90;;;10.10;48.50;;;;;;5069226;28;20422;-72
2021/04/03 11:27:22;;;;;;;4.60;2.30;;;9.80;49.70;;;;;;5076917;28;20184;-71
2021/04/03 11:29:48;;;;;;;10.73;3.57;;;9.80;48.50;;;;;;5076591;28;20199;-72
2021/04/03 11:32:14;;;;;;;8.03;3.40;;;9.70;49.00;;;;;;5077362;28;20205;-71
2021/04/03 11:34:40;;;;;;;6.47;2.93;;;9.80;49.40;;;;;;5077138;28;20417;-73
2021/04/03 11:37:06;;;;;;;5.90;3.03;;;9.90;49.30;;;;;;5077096;28;20203;-72
2021/04/03 11:39:32;;;;;;;3.90;2.37;;;9.90;48.20;;;;;;5079732;28;20425;-71
2021/04/03 11:41:58;;;;;;;8.07;3.77;;;9.90;47.00;;;;;;5080751;28;20513;-70
2021/04/03 11:44:25;;;;;;;7.33;2.70;;;9.70;47.40;;;;;;5076663;28;20219;-71
2021/04/03 11:46:51;;;;;;;6.70;3.03;;;9.80;48.10;;;;;;5076667;28;20495;-71
2021/04/03 11:49:17;;;;;;;7.80;2.90;;;9.90;47.30;;;;;;5079688;28;20455;-72
2021/04/03 11:51:43;;;;;;;7.03;2.90;;;9.90;46.60;;;;;;5082186;28;20466;-71
2021/04/03 11:54:09;;;;;;;7.80;2.70;;;10.40;45.80;;;;;;5080152;28;20417;-72
2021/04/03 11:56:35;;;;;;;6.87;2.83;;;10.80;45.00;;;;;;5081657;28;20472;-71
2021/04/03 11:59:01;;;;;;;9.67;3.23;;;11.20;44.10;;;;;;5082934;28;20433;-72
2021/04/03 12:01:28;;;;;;;5.77;3.10;;;11.00;44.30;;;;;;5063976;28;20460;-71
2021/04/03 12:03:54;;;;;;;4.83;3.00;;;11.00;45.10;;;;;;5083094;28;20249;-76
2021/04/03 12:06:20;;;;;;;7.17;2.63;;;11.40;44.10;;;;;;5081100;28;20446;-70
2021/04/03 12:08:46;;;;;;;5.50;3.00;;;11.20;44.60;;;;;;5076361;28;20421;-73
2021/04/03 12:11:11;;;;;;;7.50;2.70;;;10.70;45.40;;;;;;5076580;28;20810;-71
2021/04/03 12:13:37;;;;;;;5.03;3.10;;;10.50;45.40;;;;;;5077227;28;20191;-72
2021/04/03 12:16:03;;;;;;;5.27;3.00;;;10.50;45.30;;;;;;5076581;28;20231;-71
2021/04/03 12:18:29;;;;;;;5.40;2.33;;;10.80;44.90;;;;;;5075188;28;20745;-72
2021/04/03 12:20:55;;;;;;;4.27;2.70;;;11.20;43.00;;;;;;5072074;28;20466;-71
2021/04/03 12:23:21;;;;;;;3.40;2.13;;;11.50;42.40;;;;;;5073543;28;20211;-71
2021/04/03 12:25:47;;;;;;;4.83;2.50;;;11.30;42.00;;;;;;5072877;28;20446;-71
2021/04/03 12:28:13;;;;;;;6.50;3.20;;;11.20;42.00;;;;;;5073613;28;20325;-71
2021/04/03 12:30:39;;;;;;;6.30;2.83;;;11.50;42.30;;;;;;5073917;28;20635;-72
2021/04/03 12:33:04;;;;;;;4.80;2.90;;;11.20;43.00;;;;;;5075957;28;20428;-71
2021/04/03 12:35:30;;;;;;;7.20;3.00;;;11.00;43.70;;;;;;5075895;28;20221;-71
2021/04/03 12:37:56;;;;;;;5.57;2.70;;;10.60;44.90;;;;;;5079867;28;20184;-71
2021/04/03 12:40:22;;;;;;;8.37;3.13;;;10.40;45.40;;;;;;5079833;28;20939;-71
2021/04/03 12:42:48;;;;;;;6.90;2.80;;;10.60;45.30;;;;;;5077617;28;20188;-71
2021/04/03 12:45:14;;;;;;;8.10;2.90;;;10.40;45.00;;;;;;5074355;28;20212;-71
2021/04/03 12:47:39;;;;;;;4.07;2.67;;;10.40;44.60;;;;;;5073457;28;20647;-71
2021/04/03 12:50:07;;;;;;;6.20;2.60;;;10.40;44.20;;;;;;5074623;28;20418;-72
2021/04/03 12:52:33;;;;;;;5.40;2.60;;;10.50;44.10;;;;;;5074689;28;20203;-70
2021/04/03 12:55:00;;;;;;;13.13;2.87;;;10.70;43.80;;;;;;5076757;28;20430;-70
2021/04/03 12:57:25;;;;;;;4.93;2.53;;;11.10;43.10;;;;;;5076991;28;20479;-70